sensor_id;sensor_type;location;lat;lon;timestamp;pressure;altitude;pressure_sealevel;temperature;humidity
14067;BME280;7108;42.684;23.350;2023-03-03T00:01:14;95390.63;;;5.32;100.00
14067;BME280;7108;42.684;23.350;2023-03-03T00:03:42;95421.81;;;5.57;100.00
14067;BME280;7108;42.684;23.350;2023-03-03T00:06:10;95393.13;;;5.37;100.00
14067;BME280;7108;42.684;23.350;2023-03-03T00:08:36;95427.50;;;5.47;100.00
14067;BME280;7108;42.684;23.350;2023-03-03T00:11:03;95401.75;;;5.43;100.00
14067;BME280;7108;42.684;23.350;2023-03-03T00:13:41;95413.38;;;5.47;100.00
14067;BME280;7108;42.684;23.350;2023-03-03T00:16:30;95386.41;;;5.31;100.00
14067;BME280;7108;42.684;23.350;2023-03-03T00:18:59;95404.28;;;5.39;100.00
14067;BME280;7108;42.684;23.350;2023-03-03T00:21:31;95414.06;;;5.35;100.00
14067;BME280;7108;42.684;23.350;2023-03-03T00:24:14;95382.69;;;5.16;100.00
14067;BME280;7108;42.684;23.350;2023-03-03T00:26:44;95406.38;;;5.34;100.00
14067;BME280;7108;42.684;23.350;2023-03-03T00:29:33;95408.72;;;5.35;100.00
14067;BME280;7108;42.684;23.350;2023-03-03T00:32:53;95394.28;;;5.28;100.00
14067;BME280;7108;42.684;23.350;2023-03-03T00:35:30;95410.28;;;5.36;100.00
14067;BME280;7108;42.684;23.350;2023-03-03T00:38:11;95361.63;;;5.14;100.00
14067;BME280;7108;42.684;23.350;2023-03-03T00:40:42;95378.88;;;5.25;100.00
14067;BME280;7108;42.684;23.350;2023-03-03T00:45:53;95369.44;;;5.27;100.00
14067;BME280;7108;42.684;23.350;2023-03-03T00:50:59;95353.44;;;5.19;100.00
14067;BME280;7108;42.684;23.350;2023-03-03T00:53:27;95354.22;;;5.28;100.00
14067;BME280;7108;42.684;23.350;2023-03-03T00:55:57;95341.50;;;5.17;100.00
14067;BME280;7108;42.684;23.350;2023-03-03T00:58:26;95339.66;;;5.17;100.00
14067;BME280;7108;42.684;23.350;2023-03-03T01:00:53;95370.97;;;5.37;100.00
14067;BME280;7108;42.684;23.350;2023-03-03T01:03:22;95337.91;;;5.21;100.00
14067;BME280;7108;42.684;23.350;2023-03-03T01:05:53;95303.75;;;4.98;100.00
14067;BME280;7108;42.684;23.350;2023-03-03T01:08:19;95329.03;;;5.00;100.00
14067;BME280;7108;42.684;23.350;2023-03-03T01:11:14;95353.19;;;5.12;100.00
14067;BME280;7108;42.684;23.350;2023-03-03T01:13:45;95363.06;;;5.12;100.00
14067;BME280;7108;42.684;23.350;2023-03-03T01:16:12;95332.97;;;4.94;100.00
14067;BME280;7108;42.684;23.350;2023-03-03T01:18:38;95340.66;;;4.96;100.00
14067;BME280;7108;42.684;23.350;2023-03-03T01:21:07;95335.38;;;4.87;100.00
14067;BME280;7108;42.684;23.350;2023-03-03T01:23:33;95361.53;;;5.02;100.00
14067;BME280;7108;42.684;23.350;2023-03-03T01:26:02;95364.06;;;4.99;100.00
14067;BME280;7108;42.684;23.350;2023-03-03T01:28:32;95327.50;;;4.82;100.00
14067;BME280;7108;42.684;23.350;2023-03-03T01:31:03;95353.06;;;5.00;100.00
14067;BME280;7108;42.684;23.350;2023-03-03T01:33:29;95354.59;;;5.10;100.00
14067;BME280;7108;42.684;23.350;2023-03-03T01:35:56;95343.16;;;5.01;100.00
14067;BME280;7108;42.684;23.350;2023-03-03T01:38:22;95327.00;;;4.97;100.00
14067;BME280;7108;42.684;23.350;2023-03-03T01:40:53;95346.75;;;5.05;100.00
14067;BME280;7108;42.684;23.350;2023-03-03T01:43:19;95337.69;;;4.97;100.00
14067;BME280;7108;42.684;23.350;2023-03-03T01:48:16;95337.47;;;5.11;100.00
14067;BME280;7108;42.684;23.350;2023-03-03T01:50:53;95341.09;;;5.06;100.00
14067;BME280;7108;42.684;23.350;2023-03-03T01:53:42;95313.19;;;4.95;100.00
14067;BME280;7108;42.684;23.350;2023-03-03T01:56:09;95342.81;;;5.11;100.00
14067;BME280;7108;42.684;23.350;2023-03-03T01:58:41;95323.72;;;4.92;100.00
14067;BME280;7108;42.684;23.350;2023-03-03T02:01:12;95339.22;;;4.98;100.00
14067;BME280;7108;42.684;23.350;2023-03-03T02:03:40;95337.69;;;4.97;100.00
14067;BME280;7108;42.684;23.350;2023-03-03T02:06:12;95318.06;;;4.85;100.00
14067;BME280;7108;42.684;23.350;2023-03-03T02:09:06;95331.13;;;4.86;100.00
14067;BME280;7108;42.684;23.350;2023-03-03T02:11:30;95343.94;;;5.01;100.00
14067;BME280;7108;42.684;23.350;2023-03-03T02:13:57;95337.81;;;5.01;100.00
14067;BME280;7108;42.684;23.350;2023-03-03T02:16:23;95322.47;;;4.89;100.00
14067;BME280;7108;42.684;23.350;2023-03-03T02:18:49;95340.28;;;5.06;100.00
14067;BME280;7108;42.684;23.350;2023-03-03T02:21:17;95298.28;;;4.86;100.00
14067;BME280;7108;42.684;23.350;2023-03-03T02:26:18;95325.66;;;5.12;100.00
14067;BME280;7108;42.684;23.350;2023-03-03T02:28:47;95320.81;;;5.14;100.00
14067;BME280;7108;42.684;23.350;2023-03-03T02:31:17;95335.41;;;5.16;100.00
14067;BME280;7108;42.684;23.350;2023-03-03T02:33:45;95356.44;;;5.18;100.00
14067;BME280;7108;42.684;23.350;2023-03-03T02:36:13;95317.06;;;5.06;100.00
14067;BME280;7108;42.684;23.350;2023-03-03T02:38:47;95339.91;;;5.24;100.00
14067;BME280;7108;42.684;23.350;2023-03-03T02:41:34;95322.72;;;5.13;100.00
14067;BME280;7108;42.684;23.350;2023-03-03T02:44:06;95339.47;;;5.22;100.00
14067;BME280;7108;42.684;23.350;2023-03-03T02:46:38;95310.63;;;5.07;100.00
14067;BME280;7108;42.684;23.350;2023-03-03T02:49:06;95341.78;;;5.32;100.00
14067;BME280;7108;42.684;23.350;2023-03-03T02:51:32;95322.06;;;5.16;100.00
14067;BME280;7108;42.684;23.350;2023-03-03T02:53:58;95306.75;;;4.96;100.00
14067;BME280;7108;42.684;23.350;2023-03-03T02:56:23;95335.25;;;5.13;100.00
14067;BME280;7108;42.684;23.350;2023-03-03T02:58:49;95320.50;;;5.07;100.00
14067;BME280;7108;42.684;23.350;2023-03-03T03:01:18;95326.47;;;5.12;100.00
14067;BME280;7108;42.684;23.350;2023-03-03T03:03:44;95334.31;;;5.17;100.00
14067;BME280;7108;42.684;23.350;2023-03-03T03:06:09;95329.59;;;5.14;100.00
14067;BME280;7108;42.684;23.350;2023-03-03T03:08:35;95310.19;;;4.97;100.00
14067;BME280;7108;42.684;23.350;2023-03-03T03:11:02;95303.00;;;4.89;100.00
14067;BME280;7108;42.684;23.350;2023-03-03T03:13:27;95307.53;;;4.97;100.00
14067;BME280;7108;42.684;23.350;2023-03-03T03:15:54;95318.34;;;5.00;100.00
14067;BME280;7108;42.684;23.350;2023-03-03T03:18:20;95304.69;;;4.93;100.00
14067;BME280;7108;42.684;23.350;2023-03-03T03:20:45;95299.53;;;4.88;100.00
14067;BME280;7108;42.684;23.350;2023-03-03T03:23:11;95311.00;;;4.97;100.00
14067;BME280;7108;42.684;23.350;2023-03-03T03:25:37;95324.94;;;5.03;100.00
14067;BME280;7108;42.684;23.350;2023-03-03T03:28:10;95310.88;;;4.85;100.00
14067;BME280;7108;42.684;23.350;2023-03-03T03:30:37;95325.09;;;4.98;100.00
14067;BME280;7108;42.684;23.350;2023-03-03T03:33:02;95324.34;;;4.97;100.00
14067;BME280;7108;42.684;23.350;2023-03-03T03:35:28;95308.03;;;4.82;100.00
14067;BME280;7108;42.684;23.350;2023-03-03T03:37:54;95303.00;;;4.89;100.00
14067;BME280;7108;42.684;23.350;2023-03-03T03:40:19;95286.19;;;4.88;100.00
14067;BME280;7108;42.684;23.350;2023-03-03T03:42:45;95255.19;;;4.67;100.00
14067;BME280;7108;42.684;23.350;2023-03-03T03:45:11;95308.72;;;5.08;100.00
14067;BME280;7108;42.684;23.350;2023-03-03T03:47:40;95291.81;;;4.95;100.00
14067;BME280;7108;42.684;23.350;2023-03-03T03:50:07;95299.66;;;5.00;100.00
14067;BME280;7108;42.684;23.350;2023-03-03T03:52:33;95319.09;;;5.09;100.00
14067;BME280;7108;42.684;23.350;2023-03-03T03:54:59;95278.63;;;4.99;100.00
14067;BME280;7108;42.684;23.350;2023-03-03T03:57:25;95306.88;;;5.08;100.00
14067;BME280;7108;42.684;23.350;2023-03-03T03:59:51;95292.72;;;5.08;100.00
14067;BME280;7108;42.684;23.350;2023-03-03T04:02:16;95312.09;;;5.25;100.00
14067;BME280;7108;42.684;23.350;2023-03-03T04:04:42;95291.63;;;5.09;100.00
14067;BME280;7108;42.684;23.350;2023-03-03T04:07:07;95308.66;;;5.24;100.00
14067;BME280;7108;42.684;23.350;2023-03-03T04:09:33;95301.16;;;5.18;100.00
14067;BME280;7108;42.684;23.350;2023-03-03T04:11:59;95294.75;;;5.11;100.00
14067;BME280;7108;42.684;23.350;2023-03-03T04:14:24;95292.16;;;5.22;100.00
14067;BME280;7108;42.684;23.350;2023-03-03T04:16:50;95297.59;;;5.34;100.00
14067;BME280;7108;42.684;23.350;2023-03-03T04:19:15;95287.44;;;5.28;100.00
14067;BME280;7108;42.684;23.350;2023-03-03T04:21:41;95277.25;;;5.21;100.00
14067;BME280;7108;42.684;23.350;2023-03-03T04:24:09;95285.72;;;5.23;100.00
14067;BME280;7108;42.684;23.350;2023-03-03T04:26:35;95287.75;;;5.26;100.00
14067;BME280;7108;42.684;23.350;2023-03-03T04:29:01;95254.81;;;5.14;100.00
14067;BME280;7108;42.684;23.350;2023-03-03T04:31:26;95277.72;;;5.23;100.00
14067;BME280;7108;42.684;23.350;2023-03-03T04:33:52;95288.34;;;5.32;100.00
14067;BME280;7108;42.684;23.350;2023-03-03T04:36:19;95287.00;;;5.18;100.00
14067;BME280;7108;42.684;23.350;2023-03-03T04:38:45;95281.06;;;5.12;100.00
14067;BME280;7108;42.684;23.350;2023-03-03T04:41:10;95306.91;;;5.28;100.00
14067;BME280;7108;42.684;23.350;2023-03-03T04:43:37;95274.69;;;5.05;100.00
14067;BME280;7108;42.684;23.350;2023-03-03T04:46:02;95284.69;;;5.08;100.00
14067;BME280;7108;42.684;23.350;2023-03-03T04:48:28;95277.22;;;4.93;100.00
14067;BME280;7108;42.684;23.350;2023-03-03T04:50:57;95296.97;;;5.09;100.00
14067;BME280;7108;42.684;23.350;2023-03-03T04:53:22;95285.03;;;5.06;100.00
14067;BME280;7108;42.684;23.350;2023-03-03T04:55:52;95303.50;;;5.19;100.00
14067;BME280;7108;42.684;23.350;2023-03-03T04:58:18;95305.69;;;5.18;100.00
14067;BME280;7108;42.684;23.350;2023-03-03T05:01:02;95299.66;;;5.29;100.00
14067;BME280;7108;42.684;23.350;2023-03-03T05:03:28;95314.91;;;5.28;100.00
14067;BME280;7108;42.684;23.350;2023-03-03T05:05:56;95285.63;;;5.12;100.00
14067;BME280;7108;42.684;23.350;2023-03-03T05:08:22;95302.84;;;5.22;100.00
14067;BME280;7108;42.684;23.350;2023-03-03T05:10:54;95271.06;;;5.01;100.00
14067;BME280;7108;42.684;23.350;2023-03-03T05:13:19;95289.97;;;5.24;100.00
14067;BME280;7108;42.684;23.350;2023-03-03T05:15:50;95300.31;;;5.26;100.00
14067;BME280;7108;42.684;23.350;2023-03-03T05:18:18;95314.63;;;5.21;100.00
14067;BME280;7108;42.684;23.350;2023-03-03T05:20:43;95297.13;;;5.04;100.00
14067;BME280;7108;42.684;23.350;2023-03-03T05:23:09;95311.97;;;5.21;100.00
14067;BME280;7108;42.684;23.350;2023-03-03T05:25:34;95292.13;;;5.02;100.00
14067;BME280;7108;42.684;23.350;2023-03-03T05:28:00;95312.19;;;5.08;100.00
14067;BME280;7108;42.684;23.350;2023-03-03T05:30:36;95253.50;;;4.54;100.00
14067;BME280;7108;42.684;23.350;2023-03-03T05:33:03;95305.00;;;5.00;100.00
14067;BME280;7108;42.684;23.350;2023-03-03T05:35:35;95308.94;;;4.94;100.00
14067;BME280;7108;42.684;23.350;2023-03-03T05:38:00;95317.25;;;5.01;100.00
14067;BME280;7108;42.684;23.350;2023-03-03T05:40:29;95320.38;;;5.03;100.00
14067;BME280;7108;42.684;23.350;2023-03-03T05:42:55;95285.44;;;4.79;100.00
14067;BME280;7108;42.684;23.350;2023-03-03T05:45:21;95314.59;;;4.93;100.00
14067;BME280;7108;42.684;23.350;2023-03-03T05:47:49;95293.59;;;4.83;100.00
14067;BME280;7108;42.684;23.350;2023-03-03T05:50:18;95312.25;;;4.91;100.00
14067;BME280;7108;42.684;23.350;2023-03-03T05:52:47;95300.34;;;4.89;100.00
14067;BME280;7108;42.684;23.350;2023-03-03T05:55:14;95313.66;;;4.97;100.00
14067;BME280;7108;42.684;23.350;2023-03-03T05:57:39;95301.25;;;4.93;100.00
14067;BME280;7108;42.684;23.350;2023-03-03T06:00:05;95309.81;;;5.07;100.00
14067;BME280;7108;42.684;23.350;2023-03-03T06:02:33;95318.88;;;5.22;100.00
14067;BME280;7108;42.684;23.350;2023-03-03T06:04:58;95301.78;;;5.15;100.00
14067;BME280;7108;42.684;23.350;2023-03-03T06:07:24;95327.47;;;5.36;100.00
14067;BME280;7108;42.684;23.350;2023-03-03T06:09:50;95325.84;;;5.44;100.00
14067;BME280;7108;42.684;23.350;2023-03-03T06:12:15;95316.28;;;5.43;100.00
14067;BME280;7108;42.684;23.350;2023-03-03T06:14:41;95318.78;;;5.39;100.00
14067;BME280;7108;42.684;23.350;2023-03-03T06:17:06;95331.31;;;5.47;100.00
14067;BME280;7108;42.684;23.350;2023-03-03T06:19:32;95313.69;;;5.26;100.00
14067;BME280;7108;42.684;23.350;2023-03-03T06:22:00;95339.06;;;5.40;100.00
14067;BME280;7108;42.684;23.350;2023-03-03T06:24:26;95309.47;;;5.17;100.00
14067;BME280;7108;42.684;23.350;2023-03-03T06:26:55;95343.75;;;5.43;100.00
14067;BME280;7108;42.684;23.350;2023-03-03T06:29:21;95337.03;;;5.37;100.00
14067;BME280;7108;42.684;23.350;2023-03-03T06:31:46;95336.09;;;5.33;100.00
14067;BME280;7108;42.684;23.350;2023-03-03T06:34:12;95296.91;;;5.17;100.00
14067;BME280;7108;42.684;23.350;2023-03-03T06:36:37;95337.16;;;5.41;100.00
14067;BME280;7108;42.684;23.350;2023-03-03T06:39:06;95334.69;;;5.36;100.00
14067;BME280;7108;42.684;23.350;2023-03-03T06:41:31;95338.09;;;5.45;100.00
14067;BME280;7108;42.684;23.350;2023-03-03T06:43:57;95323.63;;;5.46;100.00
14067;BME280;7108;42.684;23.350;2023-03-03T06:46:33;95301.03;;;5.06;100.00
14067;BME280;7108;42.684;23.350;2023-03-03T06:49:01;95335.59;;;5.40;100.00
14067;BME280;7108;42.684;23.350;2023-03-03T06:51:36;95344.97;;;5.54;100.00
14067;BME280;7108;42.684;23.350;2023-03-03T06:54:25;95310.78;;;5.39;100.00
14067;BME280;7108;42.684;23.350;2023-03-03T06:56:58;95321.81;;;5.58;100.00
14067;BME280;7108;42.684;23.350;2023-03-03T06:59:26;95335.28;;;5.70;100.00
14067;BME280;7108;42.684;23.350;2023-03-03T07:01:53;95303.50;;;5.48;100.00
14067;BME280;7108;42.684;23.350;2023-03-03T07:04:26;95359.31;;;5.79;100.00
14067;BME280;7108;42.684;23.350;2023-03-03T07:07:31;95349.00;;;5.89;100.00
14067;BME280;7108;42.684;23.350;2023-03-03T07:09:58;95348.38;;;5.92;100.00
14067;BME280;7108;42.684;23.350;2023-03-03T07:12:29;95332.59;;;5.79;100.00
14067;BME280;7108;42.684;23.350;2023-03-03T07:15:01;95305.75;;;5.67;100.00
14067;BME280;7108;42.684;23.350;2023-03-03T07:17:40;95303.06;;;5.67;100.00
14067;BME280;7108;42.684;23.350;2023-03-03T07:20:20;95340.41;;;5.84;100.00
14067;BME280;7108;42.684;23.350;2023-03-03T07:22:46;95309.41;;;5.62;100.00
14067;BME280;7108;42.684;23.350;2023-03-03T07:25:22;95326.78;;;5.77;100.00
14067;BME280;7108;42.684;23.350;2023-03-03T07:27:48;95345.28;;;5.82;100.00
14067;BME280;7108;42.684;23.350;2023-03-03T07:30:23;95334.59;;;5.82;100.00
14067;BME280;7108;42.684;23.350;2023-03-03T07:32:51;95331.50;;;5.71;100.00
14067;BME280;7108;42.684;23.350;2023-03-03T07:35:25;95337.75;;;5.75;100.00
14067;BME280;7108;42.684;23.350;2023-03-03T07:40:53;95324.91;;;5.69;100.00
14067;BME280;7108;42.684;23.350;2023-03-03T07:43:40;95329.16;;;5.70;100.00
14067;BME280;7108;42.684;23.350;2023-03-03T07:48:43;95337.34;;;5.93;100.00
14067;BME280;7108;42.684;23.350;2023-03-03T07:53:40;95313.16;;;5.90;100.00
14067;BME280;7108;42.684;23.350;2023-03-03T07:56:16;95319.09;;;5.95;100.00
14067;BME280;7108;42.684;23.350;2023-03-03T07:58:48;95304.94;;;5.95;100.00
14067;BME280;7108;42.684;23.350;2023-03-03T08:01:40;95324.41;;;6.04;100.00
14067;BME280;7108;42.684;23.350;2023-03-03T08:04:12;95318.56;;;6.02;100.00
14067;BME280;7108;42.684;23.350;2023-03-03T08:06:55;95317.00;;;6.01;100.00
14067;BME280;7108;42.684;23.350;2023-03-03T08:09:26;95324.47;;;5.95;100.00
14067;BME280;7108;42.684;23.350;2023-03-03T08:12:04;95306.50;;;5.76;100.00
14067;BME280;7108;42.684;23.350;2023-03-03T08:14:37;95321.50;;;5.88;100.00
14067;BME280;7108;42.684;23.350;2023-03-03T08:17:13;95330.09;;;5.94;100.00
14067;BME280;7108;42.684;23.350;2023-03-03T08:19:41;95323.22;;;5.93;100.00
14067;BME280;7108;42.684;23.350;2023-03-03T08:22:17;95328.03;;;5.99;100.00
14067;BME280;7108;42.684;23.350;2023-03-03T08:24:43;95298.22;;;5.89;100.00
14067;BME280;7108;42.684;23.350;2023-03-03T08:27:09;95294.78;;;5.88;100.00
14067;BME280;7108;42.684;23.350;2023-03-03T08:29:34;95318.91;;;6.00;100.00
14067;BME280;7108;42.684;23.350;2023-03-03T08:32:00;95287.72;;;5.84;100.00
14067;BME280;7108;42.684;23.350;2023-03-03T08:34:26;95305.69;;;6.04;100.00
14067;BME280;7108;42.684;23.350;2023-03-03T08:36:51;95308.44;;;6.07;100.00
14067;BME280;7108;42.684;23.350;2023-03-03T08:39:17;95286.41;;;5.90;100.00
14067;BME280;7108;42.684;23.350;2023-03-03T08:41:45;95313.81;;;6.07;100.00
14067;BME280;7108;42.684;23.350;2023-03-03T08:44:11;95302.53;;;6.02;100.00
14067;BME280;7108;42.684;23.350;2023-03-03T08:46:40;95290.47;;;5.96;100.00
14067;BME280;7108;42.684;23.350;2023-03-03T08:49:05;95300.31;;;6.04;100.00
14067;BME280;7108;42.684;23.350;2023-03-03T08:51:34;95282.50;;;5.87;100.00
14067;BME280;7108;42.684;23.350;2023-03-03T08:54:00;95284.53;;;5.90;100.00
14067;BME280;7108;42.684;23.350;2023-03-03T08:56:26;95309.25;;;6.08;100.00
14067;BME280;7108;42.684;23.350;2023-03-03T08:58:51;95292.38;;;5.95;100.00
14067;BME280;7108;42.684;23.350;2023-03-03T09:01:17;95292.03;;;5.97;100.00
14067;BME280;7108;42.684;23.350;2023-03-03T09:03:43;95310.81;;;6.09;100.00
14067;BME280;7108;42.684;23.350;2023-03-03T09:06:09;95313.34;;;6.26;100.00
14067;BME280;7108;42.684;23.350;2023-03-03T09:08:35;95295.75;;;6.25;100.00
14067;BME280;7108;42.684;23.350;2023-03-03T09:11:01;95318.22;;;6.44;100.00
14067;BME280;7108;42.684;23.350;2023-03-03T09:13:28;95315.03;;;6.51;100.00
14067;BME280;7108;42.684;23.350;2023-03-03T09:15:55;95301.53;;;6.59;100.00
14067;BME280;7108;42.684;23.350;2023-03-03T09:18:27;95297.53;;;6.65;100.00
14067;BME280;7108;42.684;23.350;2023-03-03T09:20:58;95307.59;;;6.68;100.00
14067;BME280;7108;42.684;23.350;2023-03-03T09:23:39;95301.88;;;6.57;100.00
14067;BME280;7108;42.684;23.350;2023-03-03T09:29:06;95309.13;;;6.57;100.00
14067;BME280;7108;42.684;23.350;2023-03-03T09:31:41;95302.88;;;6.53;100.00
14067;BME280;7108;42.684;23.350;2023-03-03T09:34:40;95299.59;;;6.48;100.00
14067;BME280;7108;42.684;23.350;2023-03-03T09:37:22;95306.66;;;6.52;100.00
14067;BME280;7108;42.684;23.350;2023-03-03T09:39:55;95281.53;;;6.45;100.00
14067;BME280;7108;42.684;23.350;2023-03-03T09:42:44;95298.56;;;6.72;100.00
14067;BME280;7108;42.684;23.350;2023-03-03T10:05:02;95291.81;;;7.22;100.00
14067;BME280;7108;42.684;23.350;2023-03-03T10:21:35;95283.88;;;7.50;100.00
14067;BME280;7108;42.684;23.350;2023-03-03T10:32:23;95272.03;;;7.75;100.00
14067;BME280;7108;42.684;23.350;2023-03-03T10:35:13;95274.03;;;7.78;100.00
14067;BME280;7108;42.684;23.350;2023-03-03T10:43:10;95267.72;;;7.46;100.00
14067;BME280;7108;42.684;23.350;2023-03-03T10:57:20;95258.00;;;7.30;100.00
14067;BME280;7108;42.684;23.350;2023-03-03T11:08:14;95246.28;;;7.22;100.00
14067;BME280;7108;42.684;23.350;2023-03-03T11:10:51;95256.44;;;7.17;100.00
14067;BME280;7108;42.684;23.350;2023-03-03T11:21:40;95236.78;;;7.25;100.00
14067;BME280;7108;42.684;23.350;2023-03-03T11:35:16;95236.91;;;7.40;100.00
14067;BME280;7108;42.684;23.350;2023-03-03T11:37:55;95232.19;;;7.37;100.00
14067;BME280;7108;42.684;23.350;2023-03-03T11:40:29;95234.56;;;7.27;100.00
14067;BME280;7108;42.684;23.350;2023-03-03T11:43:09;95228.84;;;7.40;100.00
14067;BME280;7108;42.684;23.350;2023-03-03T11:45:47;95234.88;;;7.37;100.00
14067;BME280;7108;42.684;23.350;2023-03-03T11:51:05;95221.38;;;7.22;100.00
14067;BME280;7108;42.684;23.350;2023-03-03T11:59:13;95224.59;;;7.39;100.00
14067;BME280;7108;42.684;23.350;2023-03-03T12:01:59;95228.84;;;7.40;100.00
14067;BME280;7108;42.684;23.350;2023-03-03T12:04:44;95211.44;;;7.22;100.00
14067;BME280;7108;42.684;23.350;2023-03-03T12:12:40;95204.75;;;7.28;100.00
14067;BME280;7108;42.684;23.350;2023-03-03T12:23:54;95228.41;;;7.26;100.00
14067;BME280;7108;42.684;23.350;2023-03-03T12:29:25;95229.19;;;6.79;100.00
14067;BME280;7108;42.684;23.350;2023-03-03T12:32:19;95223.97;;;6.95;100.00
14067;BME280;7108;42.684;23.350;2023-03-03T12:35:28;95236.13;;;6.80;100.00
14067;BME280;7108;42.684;23.350;2023-03-03T12:37:57;95221.94;;;6.80;100.00
14067;BME280;7108;42.684;23.350;2023-03-03T12:40:34;95227.63;;;6.90;100.00
14067;BME280;7108;42.684;23.350;2023-03-03T12:46:05;95223.63;;;6.96;100.00
14067;BME280;7108;42.684;23.350;2023-03-03T12:48:41;95238.69;;;6.89;100.00
14067;BME280;7108;42.684;23.350;2023-03-03T13:02:44;95246.56;;;6.61;100.00
14067;BME280;7108;42.684;23.350;2023-03-03T13:11:25;95207.56;;;6.28;100.00
14067;BME280;7108;42.684;23.350;2023-03-03T13:14:06;95241.41;;;6.56;100.00
14067;BME280;7108;42.684;23.350;2023-03-03T13:16:44;95219.53;;;6.43;100.00
14067;BME280;7108;42.684;23.350;2023-03-03T13:19:26;95232.91;;;6.43;100.00
14067;BME280;7108;42.684;23.350;2023-03-03T13:22:05;95234.69;;;6.39;100.00
14067;BME280;7108;42.684;23.350;2023-03-03T13:27:19;95213.03;;;6.32;100.00
14067;BME280;7108;42.684;23.350;2023-03-03T13:29:58;95214.41;;;6.38;100.00
14067;BME280;7108;42.684;23.350;2023-03-03T13:32:42;95216.41;;;6.41;100.00
14067;BME280;7108;42.684;23.350;2023-03-03T13:37:53;95236.34;;;6.75;100.00
14067;BME280;7108;42.684;23.350;2023-03-03T13:40:29;95241.03;;;6.90;100.00
14067;BME280;7108;42.684;23.350;2023-03-03T13:45:36;95230.16;;;6.51;100.00
14067;BME280;7108;42.684;23.350;2023-03-03T13:48:42;95237.28;;;6.59;100.00
14067;BME280;7108;42.684;23.350;2023-03-03T13:51:21;95220.00;;;6.45;100.00
14067;BME280;7108;42.684;23.350;2023-03-03T13:54:09;95232.72;;;6.59;100.00
14067;BME280;7108;42.684;23.350;2023-03-03T14:05:25;95230.88;;;6.84;100.00
14067;BME280;7108;42.684;23.350;2023-03-03T14:07:58;95229.53;;;6.90;100.00
14067;BME280;7108;42.684;23.350;2023-03-03T14:10:53;95235.34;;;6.92;100.00
14067;BME280;7108;42.684;23.350;2023-03-03T14:16:17;95228.53;;;7.06;100.00
14067;BME280;7108;42.684;23.350;2023-03-03T14:18:54;95227.09;;;7.09;100.00
14067;BME280;7108;42.684;23.350;2023-03-03T14:21:32;95221.94;;;7.15;100.00
14067;BME280;7108;42.684;23.350;2023-03-03T14:24:10;95182.75;;;6.87;100.00
14067;BME280;7108;42.684;23.350;2023-03-03T14:26:50;95172.06;;;6.99;100.00
14067;BME280;7108;42.684;23.350;2023-03-03T14:31:54;95209.78;;;6.94;100.00
14067;BME280;7108;42.684;23.350;2023-03-03T14:36:50;95224.72;;;6.83;100.00
14067;BME280;7108;42.684;23.350;2023-03-03T14:42:29;95210.44;;;7.03;100.00
14067;BME280;7108;42.684;23.350;2023-03-03T14:44:55;95170.38;;;6.71;100.00
14067;BME280;7108;42.684;23.350;2023-03-03T14:47:25;95193.81;;;6.86;100.00
14067;BME280;7108;42.684;23.350;2023-03-03T14:49:53;95198.94;;;6.91;100.00
14067;BME280;7108;42.684;23.350;2023-03-03T14:52:25;95198.19;;;7.02;100.00
14067;BME280;7108;42.684;23.350;2023-03-03T14:54:57;95205.53;;;7.05;100.00
14067;BME280;7108;42.684;23.350;2023-03-03T14:57:46;95213.78;;;7.24;100.00
14067;BME280;7108;42.684;23.350;2023-03-03T15:05:33;95175.38;;;7.32;100.00
14067;BME280;7108;42.684;23.350;2023-03-03T15:08:09;95199.00;;;7.54;100.00
14067;BME280;7108;42.684;23.350;2023-03-03T15:10:40;95178.16;;;7.35;100.00
14067;BME280;7108;42.684;23.350;2023-03-03T15:13:24;95185.50;;;7.50;100.00
14067;BME280;7108;42.684;23.350;2023-03-03T15:16:02;95203.56;;;7.65;100.00
14067;BME280;7108;42.684;23.350;2023-03-03T15:18:30;95194.88;;;7.56;100.00
14067;BME280;7108;42.684;23.350;2023-03-03T15:21:07;95204.00;;;7.67;100.00
14067;BME280;7108;42.684;23.350;2023-03-03T15:24:02;95195.63;;;7.69;100.00
14067;BME280;7108;42.684;23.350;2023-03-03T15:27:03;95186.72;;;7.53;100.00
14067;BME280;7108;42.684;23.350;2023-03-03T15:32:27;95199.63;;;7.75;100.00
14067;BME280;7108;42.684;23.350;2023-03-03T15:40:48;95178.84;;;7.72;100.00
14067;BME280;7108;42.684;23.350;2023-03-03T15:43:35;95186.66;;;7.77;100.00
14067;BME280;7108;42.684;23.350;2023-03-03T15:46:34;95196.88;;;7.86;100.00
14067;BME280;7108;42.684;23.350;2023-03-03T15:55:09;95205.91;;;7.94;100.00
14067;BME280;7108;42.684;23.350;2023-03-03T16:03:18;95194.56;;;7.85;100.00
14067;BME280;7108;42.684;23.350;2023-03-03T16:06:03;95212.31;;;7.89;100.00
14067;BME280;7108;42.684;23.350;2023-03-03T16:17:00;95218.25;;;7.83;100.00
14067;BME280;7108;42.684;23.350;2023-03-03T16:27:42;95236.69;;;7.84;100.00
14067;BME280;7108;42.684;23.350;2023-03-03T16:30:24;95238.94;;;7.71;100.00
14067;BME280;7108;42.684;23.350;2023-03-03T16:36:12;95225.31;;;7.76;100.00
14067;BME280;7108;42.684;23.350;2023-03-03T16:47:33;95247.09;;;7.74;100.00
14067;BME280;7108;42.684;23.350;2023-03-03T17:06:45;95250.72;;;7.54;100.00
14067;BME280;7108;42.684;23.350;2023-03-03T17:15:00;95267.31;;;7.83;100.00
14067;BME280;7108;42.684;23.350;2023-03-03T17:17:42;95273.78;;;7.82;100.00
14067;BME280;7108;42.684;23.350;2023-03-03T17:20:31;95277.81;;;7.77;100.00
14067;BME280;7108;42.684;23.350;2023-03-03T17:31:16;95284.78;;;7.66;100.00
14067;BME280;7108;42.684;23.350;2023-03-03T17:37:06;95290.47;;;7.64;100.00
14067;BME280;7108;42.684;23.350;2023-03-03T17:40:07;95306.69;;;7.68;100.00
14067;BME280;7108;42.684;23.350;2023-03-03T17:42:58;95315.59;;;7.72;100.00
14067;BME280;7108;42.684;23.350;2023-03-03T17:45:32;95298.63;;;7.68;100.00
14067;BME280;7108;42.684;23.350;2023-03-03T17:48:35;95266.38;;;7.40;100.00
14067;BME280;7108;42.684;23.350;2023-03-03T18:01:46;95321.19;;;7.79;100.00
14067;BME280;7108;42.684;23.350;2023-03-03T18:20:47;95331.91;;;7.67;100.00
14067;BME280;7108;42.684;23.350;2023-03-03T18:25:55;95311.47;;;7.26;100.00